^^
Saratoga-Weather Station Historical Data
Daily Summary for June 30, 2020 Units:  Both    English   Metric
Daily Weekly Monthly Yearly Custom
  High: Low: Average:
Temperature: 35.2 °F /  1.8 °C 22.8 °F /  -5.1 °C 27.9 °F /  -2.3 °C
Dew Point: 30.9 °F /  -0.6 °C 21.6 °F /  -5.8 °C 25.9 °F /  -3.4 °C
Humidity: 96% 83% 92%
Wind Speed: 6mph /  9.7km/h - 0.4mph /  0.7km/h
Wind Gust: 8mph /  12.9km/h - -
Wind- - SW
Pressure: 30.4 in /  1027.8 hPa 30.3 in /  1024.4 hPa -
Precipitation: 0 in /  0.0 mm    
Historical Graphs
 
 
Tabular Data for June 30, 2020
Time Temperature Dew Point Pressure Wind Wind Speed Wind Gust Humidity Rainfall Rate (Hourly) solar
00:03 26.8 °F /  -2.9 °C 25 °F /  -3.9 °C 30.3in /  1026.4hPa Calm     93% 0in /  0.0mm 0 W/m2
00:08 26.6 °F /  -3 °C 24.8 °F /  -4 °C 30.3in /  1026.4hPa Calm     93% 0in /  0.0mm 0 W/m2
00:13 26.4 °F /  -3.1 °C 24.6 °F /  -4.1 °C 30.3in /  1026.4hPa Calm     93% 0in /  0.0mm 0 W/m2
00:18 26.4 °F /  -3.1 °C 24.6 °F /  -4.1 °C 30.3in /  1026.4hPa Calm     93% 0in /  0.0mm 0 W/m2
00:23 26.4 °F /  -3.1 °C 25 °F /  -3.9 °C 30.3in /  1026.4hPa Calm     94% 0in /  0.0mm 0 W/m2
00:28 26.4 °F /  -3.1 °C 25 °F /  -3.9 °C 30.3in /  1026.4hPa Calm     94% 0in /  0.0mm 0 W/m2
00:33 26.4 °F /  -3.1 °C 25 °F /  -3.9 °C 30.3in /  1026.4hPa Calm     94% 0in /  0.0mm 0 W/m2
00:38 26.4 °F /  -3.1 °C 25 °F /  -3.9 °C 30.3in /  1026.1hPa Calm     94% 0in /  0.0mm 0 W/m2
00:44 26.4 °F /  -3.1 °C 25 °F /  -3.9 °C 30.3in /  1026.4hPa Calm     94% 0in /  0.0mm 0 W/m2
00:49 26.2 °F /  -3.2 °C 24.8 °F /  -4 °C 30.3in /  1026.1hPa Calm     94% 0in /  0.0mm 0 W/m2
00:54 26.2 °F /  -3.2 °C 24.8 °F /  -4 °C 30.3in /  1026.1hPa Calm     94% 0in /  0.0mm 0 W/m2
00:59 26.2 °F /  -3.2 °C 24.8 °F /  -4 °C 30.3in /  1026.4hPa Calm     94% 0in /  0.0mm 0 W/m2
01:04 26.1 °F /  -3.3 °C 24.6 °F /  -4.1 °C 30.3in /  1026.1hPa Calm     94% 0in /  0.0mm 0 W/m2
01:09 26.1 °F /  -3.3 °C 24.6 °F /  -4.1 °C 30.3in /  1026.1hPa Calm     94% 0in /  0.0mm 0 W/m2
01:14 26.1 °F /  -3.3 °C 24.6 °F /  -4.1 °C 30.3in /  1026.1hPa Calm     94% 0in /  0.0mm 0 W/m2
01:19 26.1 °F /  -3.3 °C 24.6 °F /  -4.1 °C 30.3in /  1026.1hPa Calm     94% 0in /  0.0mm 0 W/m2
01:24 26.1 °F /  -3.3 °C 24.6 °F /  -4.1 °C 30.3in /  1026.1hPa Calm     94% 0in /  0.0mm 0 W/m2
01:29 26.1 °F /  -3.3 °C 24.6 °F /  -4.1 °C 30.3in /  1026.1hPa Calm     94% 0in /  0.0mm 0 W/m2
01:34 26.1 °F /  -3.3 °C 24.6 °F /  -4.1 °C 30.3in /  1026.4hPa Calm     94% 0in /  0.0mm 0 W/m2
01:39 26.1 °F /  -3.3 °C 24.6 °F /  -4.1 °C 30.3in /  1026.1hPa Calm     94% 0in /  0.0mm 0 W/m2
01:44 26.1 °F /  -3.3 °C 24.6 °F /  -4.1 °C 30.3in /  1026.4hPa Calm     94% 0in /  0.0mm 0 W/m2
01:49 26.1 °F /  -3.3 °C 24.6 °F /  -4.1 °C 30.3in /  1026.4hPa Calm     94% 0in /  0.0mm 0 W/m2
01:54 26.1 °F /  -3.3 °C 24.6 °F /  -4.1 °C 30.3in /  1026.4hPa Calm     94% 0in /  0.0mm 0 W/m2
01:59 26.1 °F /  -3.3 °C 24.6 °F /  -4.1 °C 30.3in /  1026.4hPa Calm     94% 0in /  0.0mm 0 W/m2
02:04 25.9 °F /  -3.4 °C 24.4 °F /  -4.2 °C 30.3in /  1026.4hPa Calm   1mph /  1.6km/h 94% 0in /  0.0mm 0 W/m2
02:09 25.9 °F /  -3.4 °C 24.4 °F /  -4.2 °C 30.3in /  1026.4hPa Calm     94% 0in /  0.0mm 0 W/m2
02:14 25.7 °F /  -3.5 °C 24.3 °F /  -4.3 °C 30.3in /  1026.4hPa SE 0.9mph /  1.4km/h 1mph /  1.6km/h 94% 0in /  0.0mm 0 W/m2
02:19 25.5 °F /  -3.6 °C 24.1 °F /  -4.4 °C 30.3in /  1026.4hPa Calm   1mph /  1.6km/h 94% 0in /  0.0mm 0 W/m2
02:24 25.7 °F /  -3.5 °C 24.4 °F /  -4.2 °C 30.3in /  1026.4hPa SE 0.9mph /  1.4km/h 1mph /  1.6km/h 95% 0in /  0.0mm 0 W/m2
02:29 25.9 °F /  -3.4 °C 24.6 °F /  -4.1 °C 30.3in /  1026.4hPa Calm   1mph /  1.6km/h 95% 0in /  0.0mm 0 W/m2
02:34 25.9 °F /  -3.4 °C 24.6 °F /  -4.1 °C 30.3in /  1026.4hPa Calm     95% 0in /  0.0mm 0 W/m2
02:39 25.9 °F /  -3.4 °C 24.6 °F /  -4.1 °C 30.3in /  1026.4hPa Calm     95% 0in /  0.0mm 0 W/m2
02:44 25.9 °F /  -3.4 °C 24.6 °F /  -4.1 °C 30.3in /  1026.4hPa SE 0.9mph /  1.4km/h 1mph /  1.6km/h 95% 0in /  0.0mm 0 W/m2
02:49 25.9 °F /  -3.4 °C 24.6 °F /  -4.1 °C 30.3in /  1026.4hPa Calm     95% 0in /  0.0mm 0 W/m2
02:54 25.5 °F /  -3.6 °C 24.1 °F /  -4.4 °C 30.3in /  1026.4hPa Calm     94% 0in /  0.0mm 0 W/m2
02:59 25.5 °F /  -3.6 °C 24.1 °F /  -4.4 °C 30.3in /  1026.4hPa Calm     94% 0in /  0.0mm 0 W/m2
03:04 25.5 °F /  -3.6 °C 24.1 °F /  -4.4 °C 30.3in /  1026.1hPa Calm     94% 0in /  0.0mm 0 W/m2
03:09 25.3 °F /  -3.7 °C 23.9 °F /  -4.5 °C 30.3in /  1026.1hPa Calm     94% 0in /  0.0mm 0 W/m2
03:14 25.2 °F /  -3.8 °C 23.7 °F /  -4.6 °C 30.3in /  1026.4hPa Calm     94% 0in /  0.0mm 0 W/m2
03:19 25.2 °F /  -3.8 °C 23.7 °F /  -4.6 °C 30.3in /  1026.1hPa Calm     94% 0in /  0.0mm 0 W/m2
03:24 25.2 °F /  -3.8 °C 23.7 °F /  -4.6 °C 30.3in /  1026.1hPa Calm     94% 0in /  0.0mm 0 W/m2
03:29 25.2 °F /  -3.8 °C 23.9 °F /  -4.5 °C 30.3in /  1026.4hPa SE 0.9mph /  1.4km/h 1mph /  1.6km/h 95% 0in /  0.0mm 0 W/m2
03:34 25.2 °F /  -3.8 °C 23.9 °F /  -4.5 °C 30.3in /  1026.4hPa Calm     95% 0in /  0.0mm 0 W/m2
03:39 25 °F /  -3.9 °C 23.5 °F /  -4.7 °C 30.3in /  1026.4hPa Calm   2mph /  3.2km/h 94% 0in /  0.0mm 0 W/m2
03:44 25 °F /  -3.9 °C 23.5 °F /  -4.7 °C 30.3in /  1026.4hPa Calm     94% 0in /  0.0mm 0 W/m2
03:49 25 °F /  -3.9 °C 23.5 °F /  -4.7 °C 30.3in /  1026.4hPa Calm   2mph /  3.2km/h 94% 0in /  0.0mm 0 W/m2
03:54 25 °F /  -3.9 °C 23.5 °F /  -4.7 °C 30.3in /  1026.4hPa Calm     94% 0in /  0.0mm 0 W/m2
03:59 25.2 °F /  -3.8 °C 23.9 °F /  -4.5 °C 30.3in /  1026.1hPa Calm   2mph /  3.2km/h 95% 0in /  0.0mm 0 W/m2
04:04 25.2 °F /  -3.8 °C 23.9 °F /  -4.5 °C 30.3in /  1026.1hPa SE 0.9mph /  1.4km/h 1mph /  1.6km/h 95% 0in /  0.0mm 0 W/m2
04:09 25.2 °F /  -3.8 °C 23.9 °F /  -4.5 °C 30.3in /  1026.1hPa SE 2mph /  3.2km/h 2mph /  3.2km/h 95% 0in /  0.0mm 0 W/m2
04:14 25.3 °F /  -3.7 °C 24.1 °F /  -4.4 °C 30.3in /  1026.4hPa Calm   1mph /  1.6km/h 95% 0in /  0.0mm 0 W/m2
04:19 25.3 °F /  -3.7 °C 24.1 °F /  -4.4 °C 30.3in /  1026.4hPa Calm     95% 0in /  0.0mm 0 W/m2
04:24 25.3 °F /  -3.7 °C 24.1 °F /  -4.4 °C 30.3in /  1026.4hPa Calm     95% 0in /  0.0mm 0 W/m2
04:29 25.3 °F /  -3.7 °C 24.1 °F /  -4.4 °C 30.3in /  1026.4hPa Calm     95% 0in /  0.0mm 0 W/m2
04:34 25.2 °F /  -3.8 °C 23.9 °F /  -4.5 °C 30.3in /  1026.4hPa Calm     95% 0in /  0.0mm 0 W/m2
04:39 25 °F /  -3.9 °C 23.7 °F /  -4.6 °C 30.3in /  1026.4hPa Calm   1mph /  1.6km/h 95% 0in /  0.0mm 0 W/m2
04:44 25 °F /  -3.9 °C 23.5 °F /  -4.7 °C 30.3in /  1026.8hPa Calm     94% 0in /  0.0mm 0 W/m2
04:49 24.8 °F /  -4 °C 23.4 °F /  -4.8 °C 30.3in /  1026.8hPa Calm     94% 0in /  0.0mm 0 W/m2
04:54 24.6 °F /  -4.1 °C 23.4 °F /  -4.8 °C 30.3in /  1026.8hPa Calm     95% 0in /  0.0mm 0 W/m2
04:59 24.4 °F /  -4.2 °C 23 °F /  -5 °C 30.3in /  1026.8hPa Calm     94% 0in /  0.0mm 0 W/m2
05:04 24.4 °F /  -4.2 °C 23 °F /  -5 °C 30.3in /  1026.8hPa Calm     94% 0in /  0.0mm 0 W/m2
05:09 24.4 °F /  -4.2 °C 23 °F /  -5 °C 30.3in /  1026.8hPa Calm     94% 0in /  0.0mm 0 W/m2
05:14 24.4 °F /  -4.2 °C 23.2 °F /  -4.9 °C 30.3in /  1026.8hPa Calm     95% 0in /  0.0mm 0 W/m2
05:19 24.6 °F /  -4.1 °C 23.4 °F /  -4.8 °C 30.3in /  1026.8hPa Calm     95% 0in /  0.0mm 0 W/m2
05:24 24.6 °F /  -4.1 °C 23.4 °F /  -4.8 °C 30.3in /  1026.8hPa Calm     95% 0in /  0.0mm 0 W/m2
05:29 24.4 °F /  -4.2 °C 23.2 °F /  -4.9 °C 30.3in /  1026.8hPa Calm     95% 0in /  0.0mm 0 W/m2
05:34 24.4 °F /  -4.2 °C 23.2 °F /  -4.9 °C 30.3in /  1026.8hPa Calm     95% 0in /  0.0mm 0 W/m2
05:39 24.3 °F /  -4.3 °C 22.8 °F /  -5.1 °C 30.3in /  1026.8hPa Calm     94% 0in /  0.0mm 0 W/m2
05:44 24.3 °F /  -4.3 °C 22.8 °F /  -5.1 °C 30.3in /  1026.8hPa Calm     94% 0in /  0.0mm 0 W/m2
05:49 24.1 °F /  -4.4 °C 22.8 °F /  -5.1 °C 30.3in /  1026.8hPa Calm     95% 0in /  0.0mm 0 W/m2
05:54 23.9 °F /  -4.5 °C 22.6 °F /  -5.2 °C 30.3in /  1026.8hPa Calm     95% 0in /  0.0mm 0 W/m2
05:59 23.7 °F /  -4.6 °C 22.3 °F /  -5.4 °C 30.3in /  1026.8hPa Calm     94% 0in /  0.0mm 0 W/m2
06:04 23.7 °F /  -4.6 °C 22.5 °F /  -5.3 °C 30.3in /  1026.8hPa Calm     95% 0in /  0.0mm 0 W/m2
06:09 23.7 °F /  -4.6 °C 22.5 °F /  -5.3 °C 30.3in /  1026.8hPa Calm     95% 0in /  0.0mm 0 W/m2
06:14 23.7 °F /  -4.6 °C 22.5 °F /  -5.3 °C 30.3in /  1026.8hPa Calm     95% 0in /  0.0mm 0 W/m2
06:19 23.7 °F /  -4.6 °C 22.5 °F /  -5.3 °C 30.3in /  1026.8hPa Calm     95% 0in /  0.0mm 0 W/m2
06:24 23.5 °F /  -4.7 °C 22.3 °F /  -5.4 °C 30.3in /  1026.8hPa Calm     95% 0in /  0.0mm 0 W/m2
06:29 23.5 °F /  -4.7 °C 22.3 °F /  -5.4 °C 30.3in /  1026.8hPa Calm     95% 0in /  0.0mm 0 W/m2
06:34 23.5 °F /  -4.7 °C 22.3 °F /  -5.4 °C 30.3in /  1026.8hPa Calm     95% 0in /  0.0mm 0 W/m2
06:39 23.5 °F /  -4.7 °C 22.3 °F /  -5.4 °C 30.3in /  1026.8hPa Calm     95% 0in /  0.0mm 0 W/m2
06:44 23.5 °F /  -4.7 °C 22.3 °F /  -5.4 °C 30.3in /  1026.8hPa Calm     95% 0in /  0.0mm 0 W/m2
06:49 23.4 °F /  -4.8 °C 22.1 °F /  -5.5 °C 30.3in /  1026.8hPa Calm     95% 0in /  0.0mm 0 W/m2
06:54 23.4 °F /  -4.8 °C 22.1 °F /  -5.5 °C 30.3in /  1026.8hPa Calm     95% 0in /  0.0mm 0 W/m2
06:59 23.2 °F /  -4.9 °C 21.9 °F /  -5.6 °C 30.3in /  1026.8hPa Calm     95% 0in /  0.0mm 0 W/m2
07:04 23.2 °F /  -4.9 °C 21.9 °F /  -5.6 °C 30.3in /  1027.1hPa Calm     95% 0in /  0.0mm 0 W/m2
07:09 23.2 °F /  -4.9 °C 21.9 °F /  -5.6 °C 30.3in /  1027.1hPa Calm     95% 0in /  0.0mm 0 W/m2
07:14 23.2 °F /  -4.9 °C 21.9 °F /  -5.6 °C 30.3in /  1027.1hPa Calm     95% 0in /  0.0mm 0 W/m2
07:19 23.2 °F /  -4.9 °C 21.9 °F /  -5.6 °C 30.3in /  1027.1hPa Calm     95% 0in /  0.0mm 0 W/m2
07:24 23 °F /  -5 °C 21.7 °F /  -5.7 °C 30.3in /  1027.1hPa Calm     95% 0in /  0.0mm 0 W/m2
07:29 22.8 °F /  -5.1 °C 21.6 °F /  -5.8 °C 30.3in /  1027.1hPa Calm     95% 0in /  0.0mm 0 W/m2
07:34 22.8 °F /  -5.1 °C 21.6 °F /  -5.8 °C 30.3in /  1027.1hPa Calm     95% 0in /  0.0mm 0 W/m2
07:39 22.8 °F /  -5.1 °C 21.6 °F /  -5.8 °C 30.3in /  1027.1hPa Calm     95% 0in /  0.0mm 0 W/m2
07:44 23 °F /  -5 °C 21.7 °F /  -5.7 °C 30.3in /  1027.1hPa Calm     95% 0in /  0.0mm 0 W/m2
07:49 23 °F /  -5 °C 21.7 °F /  -5.7 °C 30.3in /  1027.1hPa Calm   1mph /  1.6km/h 95% 0in /  0.0mm 0 W/m2
07:54 23.2 °F /  -4.9 °C 21.9 °F /  -5.6 °C 30.3in /  1027.1hPa Calm   1mph /  1.6km/h 95% 0in /  0.0mm 0 W/m2
07:59 23.2 °F /  -4.9 °C 21.9 °F /  -5.6 °C 30.3in /  1027.1hPa Calm     95% 0in /  0.0mm 0 W/m2
08:04 23.2 °F /  -4.9 °C 21.9 °F /  -5.6 °C 30.3in /  1027.1hPa Calm   1mph /  1.6km/h 95% 0in /  0.0mm 0 W/m2
08:09 23.2 °F /  -4.9 °C 21.9 °F /  -5.6 °C 30.3in /  1027.1hPa Calm     95% 0in /  0.0mm 0 W/m2
08:14 23 °F /  -5 °C 21.7 °F /  -5.7 °C 30.3in /  1027.4hPa Calm     95% 0in /  0.0mm 5 W/m2
08:19 23 °F /  -5 °C 21.7 °F /  -5.7 °C 30.3in /  1027.4hPa Calm     95% 0in /  0.0mm 7 W/m2
08:24 23 °F /  -5 °C 21.7 °F /  -5.7 °C 30.3in /  1027.4hPa Calm     95% 0in /  0.0mm 9 W/m2
08:29 23 °F /  -5 °C 21.7 °F /  -5.7 °C 30.3in /  1027.4hPa Calm     95% 0in /  0.0mm 11 W/m2
08:34 23 °F /  -5 °C 21.7 °F /  -5.7 °C 30.3in /  1027.4hPa Calm     95% 0in /  0.0mm 12 W/m2
08:40 23.2 °F /  -4.9 °C 21.9 °F /  -5.6 °C 30.3in /  1027.4hPa Calm   1mph /  1.6km/h 95% 0in /  0.0mm 14 W/m2
08:45 23.2 °F /  -4.9 °C 21.9 °F /  -5.6 °C 30.3in /  1027.1hPa SE 0.9mph /  1.4km/h 2mph /  3.2km/h 95% 0in /  0.0mm 14 W/m2
08:50 23.4 °F /  -4.8 °C 22.1 °F /  -5.5 °C 30.3in /  1027.4hPa Calm   1mph /  1.6km/h 95% 0in /  0.0mm 16 W/m2
08:55 23.5 °F /  -4.7 °C 22.3 °F /  -5.4 °C 30.3in /  1027.4hPa WSW 0.9mph /  1.4km/h 2mph /  3.2km/h 95% 0in /  0.0mm 19 W/m2
09:00 23.5 °F /  -4.7 °C 22.3 °F /  -5.4 °C 30.3in /  1027.4hPa Calm   1mph /  1.6km/h 95% 0in /  0.0mm 19 W/m2
09:05 23.7 °F /  -4.6 °C 22.5 °F /  -5.3 °C 30.3in /  1027.4hPa Calm     95% 0in /  0.0mm 21 W/m2
09:10 23.7 °F /  -4.6 °C 22.5 °F /  -5.3 °C 30.3in /  1027.4hPa Calm     95% 0in /  0.0mm 21 W/m2
09:15 23.7 °F /  -4.6 °C 22.5 °F /  -5.3 °C 30.3in /  1027.4hPa Calm     95% 0in /  0.0mm 23 W/m2
09:20 23.7 °F /  -4.6 °C 22.5 °F /  -5.3 °C 30.4in /  1027.8hPa Calm     95% 0in /  0.0mm 25 W/m2
09:25 23.9 °F /  -4.5 °C 22.6 °F /  -5.2 °C 30.3in /  1027.4hPa Calm     95% 0in /  0.0mm 25 W/m2
09:30 24.1 °F /  -4.4 °C 22.8 °F /  -5.1 °C 30.3in /  1027.4hPa Calm     95% 0in /  0.0mm 25 W/m2
09:35 24.3 °F /  -4.3 °C 23 °F /  -5 °C 30.3in /  1027.4hPa Calm     95% 0in /  0.0mm 26 W/m2
09:40 24.3 °F /  -4.3 °C 23 °F /  -5 °C 30.4in /  1027.8hPa Calm     95% 0in /  0.0mm 26 W/m2
09:45 24.4 °F /  -4.2 °C 23.5 °F /  -4.7 °C 30.4in /  1027.8hPa Calm     96% 0in /  0.0mm 28 W/m2
09:50 24.6 °F /  -4.1 °C 23.7 °F /  -4.6 °C 30.4in /  1027.8hPa Calm     96% 0in /  0.0mm 28 W/m2
09:55 24.8 °F /  -4 °C 23.5 °F /  -4.7 °C 30.4in /  1027.8hPa Calm     95% 0in /  0.0mm 30 W/m2
10:00 25 °F /  -3.9 °C 23.7 °F /  -4.6 °C 30.4in /  1027.8hPa Calm     95% 0in /  0.0mm 30 W/m2
10:05 25.2 °F /  -3.8 °C 23.9 °F /  -4.5 °C 30.3in /  1027.4hPa Calm   1mph /  1.6km/h 95% 0in /  0.0mm 28 W/m2
10:10 25.5 °F /  -3.6 °C 24.6 °F /  -4.1 °C 30.4in /  1027.8hPa Calm   1mph /  1.6km/h 96% 0in /  0.0mm 30 W/m2
10:15 26.1 °F /  -3.3 °C 25.2 °F /  -3.8 °C 30.4in /  1027.8hPa Calm     96% 0in /  0.0mm 32 W/m2
10:20 26.2 °F /  -3.2 °C 25.3 °F /  -3.7 °C 30.4in /  1027.8hPa Calm     96% 0in /  0.0mm 32 W/m2
10:25 26.2 °F /  -3.2 °C 25.3 °F /  -3.7 °C 30.4in /  1027.8hPa Calm     96% 0in /  0.0mm 33 W/m2
10:30 26.4 °F /  -3.1 °C 25.5 °F /  -3.6 °C 30.4in /  1027.8hPa Calm     96% 0in /  0.0mm 35 W/m2
10:35 26.6 °F /  -3 °C 25.7 °F /  -3.5 °C 30.4in /  1027.8hPa Calm     96% 0in /  0.0mm 33 W/m2
10:40 26.8 °F /  -2.9 °C 25.5 °F /  -3.6 °C 30.4in /  1027.8hPa Calm     95% 0in /  0.0mm 33 W/m2
10:45 26.8 °F /  -2.9 °C 25.9 °F /  -3.4 °C 30.4in /  1027.8hPa Calm     96% 0in /  0.0mm 33 W/m2
10:50 27 °F /  -2.8 °C 26.1 °F /  -3.3 °C 30.4in /  1027.8hPa Calm     96% 0in /  0.0mm 35 W/m2
10:55 27.1 °F /  -2.7 °C 25.9 °F /  -3.4 °C 30.4in /  1027.8hPa Calm     95% 0in /  0.0mm 33 W/m2
11:00 27.3 °F /  -2.6 °C 26.1 °F /  -3.3 °C 30.3in /  1027.4hPa ESE 0.9mph /  1.4km/h 2mph /  3.2km/h 95% 0in /  0.0mm 35 W/m2
11:05 27.7 °F /  -2.4 °C 26.6 °F /  -3 °C 30.3in /  1027.4hPa ESE 0.9mph /  1.4km/h 2mph /  3.2km/h 96% 0in /  0.0mm 33 W/m2
11:10 28.2 °F /  -2.1 °C 27.1 °F /  -2.7 °C 30.3in /  1027.4hPa ENE 2mph /  3.2km/h 3mph /  4.8km/h 96% 0in /  0.0mm 35 W/m2
11:15 28.6 °F /  -1.9 °C 27.5 °F /  -2.5 °C 30.3in /  1027.4hPa ENE 2mph /  3.2km/h 2mph /  3.2km/h 96% 0in /  0.0mm 35 W/m2
11:20 28.8 °F /  -1.8 °C 27.5 °F /  -2.5 °C 30.3in /  1027.4hPa East 0.9mph /  1.4km/h 1mph /  1.6km/h 95% 0in /  0.0mm 37 W/m2
11:25 28.9 °F /  -1.7 °C 27.7 °F /  -2.4 °C 30.3in /  1027.4hPa East 0.9mph /  1.4km/h 1mph /  1.6km/h 95% 0in /  0.0mm 37 W/m2
11:30 29.1 °F /  -1.6 °C 27.9 °F /  -2.3 °C 30.3in /  1027.4hPa Calm     95% 0in /  0.0mm 39 W/m2
11:35 29.3 °F /  -1.5 °C 28 °F /  -2.2 °C 30.3in /  1027.4hPa Calm     95% 0in /  0.0mm 37 W/m2
11:40 29.5 °F /  -1.4 °C 28.2 °F /  -2.1 °C 30.3in /  1027.4hPa Calm   1mph /  1.6km/h 95% 0in /  0.0mm 37 W/m2
11:45 29.7 °F /  -1.3 °C 28.2 °F /  -2.1 °C 30.3in /  1027.4hPa Calm   1mph /  1.6km/h 94% 0in /  0.0mm 39 W/m2
11:50 29.8 °F /  -1.2 °C 28.4 °F /  -2 °C 30.3in /  1027.1hPa East 0.9mph /  1.4km/h 3mph /  4.8km/h 94% 0in /  0.0mm 37 W/m2
11:55 30.2 °F /  -1 °C 28.9 °F /  -1.7 °C 30.3in /  1027.1hPa Calm   1mph /  1.6km/h 95% 0in /  0.0mm 39 W/m2
12:00 30.6 °F /  -0.8 °C 29.1 °F /  -1.6 °C 30.3in /  1027.1hPa Calm   2mph /  3.2km/h 94% 0in /  0.0mm 40 W/m2
12:05 30.6 °F /  -0.8 °C 29.1 °F /  -1.6 °C 30.3in /  1027.1hPa Calm   1mph /  1.6km/h 94% 0in /  0.0mm 39 W/m2
12:10 30.7 °F /  -0.7 °C 29.3 °F /  -1.5 °C 30.3in /  1027.1hPa Calm   2mph /  3.2km/h 94% 0in /  0.0mm 37 W/m2
12:15 30.7 °F /  -0.7 °C 28.9 °F /  -1.7 °C 30.3in /  1027.1hPa Calm     93% 0in /  0.0mm 37 W/m2
12:20 30.9 °F /  -0.6 °C 29.1 °F /  -1.6 °C 30.3in /  1026.8hPa Calm     93% 0in /  0.0mm 35 W/m2
12:25 31.1 °F /  -0.5 °C 29.3 °F /  -1.5 °C 30.3in /  1026.8hPa Calm   2mph /  3.2km/h 93% 0in /  0.0mm 35 W/m2
12:30 31.3 °F /  -0.4 °C 29.5 °F /  -1.4 °C 30.3in /  1026.8hPa Calm   1mph /  1.6km/h 93% 0in /  0.0mm 35 W/m2
12:35 31.5 °F /  -0.3 °C 29.7 °F /  -1.3 °C 30.3in /  1026.8hPa Calm     93% 0in /  0.0mm 35 W/m2
12:40 31.8 °F /  -0.1 °C 30 °F /  -1.1 °C 30.3in /  1026.8hPa Calm   2mph /  3.2km/h 93% 0in /  0.0mm 37 W/m2
12:45 32 °F /  0 °C 30.2 °F /  -1 °C 30.3in /  1026.8hPa Calm   1mph /  1.6km/h 93% 0in /  0.0mm 37 W/m2
12:50 32.2 °F /  0.1 °C 30.4 °F /  -0.9 °C 30.3in /  1026.8hPa Calm   2mph /  3.2km/h 93% 0in /  0.0mm 37 W/m2
12:55 32.4 °F /  0.2 °C 30.4 °F /  -0.9 °C 30.3in /  1026.8hPa West 0.9mph /  1.4km/h 3mph /  4.8km/h 92% 0in /  0.0mm 39 W/m2
13:00 32.7 °F /  0.4 °C 30.7 °F /  -0.7 °C 30.3in /  1026.8hPa West 0.9mph /  1.4km/h 1mph /  1.6km/h 92% 0in /  0.0mm 37 W/m2
13:05 32.9 °F /  0.5 °C 30.6 °F /  -0.8 °C 30.3in /  1026.8hPa West 0.9mph /  1.4km/h 4mph /  6.4km/h 91% 0in /  0.0mm 40 W/m2
13:10 33.3 °F /  0.7 °C 30.6 °F /  -0.8 °C 30.3in /  1026.8hPa WNW 0.9mph /  1.4km/h 4mph /  6.4km/h 90% 0in /  0.0mm 51 W/m2
13:15 33.6 °F /  0.9 °C 30.4 °F /  -0.9 °C 30.3in /  1026.8hPa SW 2.9mph /  4.7km/h 8mph /  12.9km/h 88% 0in /  0.0mm 63 W/m2
13:20 34 °F /  1.1 °C 30.6 °F /  -0.8 °C 30.3in /  1026.4hPa SW 2.9mph /  4.7km/h 6mph /  9.7km/h 87% 0in /  0.0mm 72 W/m2
13:25 34.2 °F /  1.2 °C 30.4 °F /  -0.9 °C 30.3in /  1026.4hPa West 6mph /  9.7km/h 6mph /  9.7km/h 86% 0in /  0.0mm 56 W/m2
13:30 34.3 °F /  1.3 °C 30.4 °F /  -0.9 °C 30.3in /  1026.1hPa WNW 0.9mph /  1.4km/h 4mph /  6.4km/h 85% 0in /  0.0mm 49 W/m2
13:35 34.5 °F /  1.4 °C 30.6 °F /  -0.8 °C 30.3in /  1026.1hPa West 2.9mph /  4.7km/h 4mph /  6.4km/h 85% 0in /  0.0mm 53 W/m2
13:40 34.5 °F /  1.4 °C 30.6 °F /  -0.8 °C 30.3in /  1026.1hPa WNW 0.9mph /  1.4km/h 2mph /  3.2km/h 85% 0in /  0.0mm 76 W/m2
13:45 34.7 °F /  1.5 °C 30.4 °F /  -0.9 °C 30.3in /  1026.1hPa Calm   7mph /  11.3km/h 84% 0in /  0.0mm 70 W/m2
13:50 34.9 °F /  1.6 °C 30.6 °F /  -0.8 °C 30.3in /  1026.1hPa WSW 0.9mph /  1.4km/h 4mph /  6.4km/h 84% 0in /  0.0mm 40 W/m2
13:55 35.1 °F /  1.7 °C 30.4 °F /  -0.9 °C 30.3in /  1026.1hPa West 2.9mph /  4.7km/h 7mph /  11.3km/h 83% 0in /  0.0mm 33 W/m2
14:00 35.1 °F /  1.7 °C 30.4 °F /  -0.9 °C 30.3in /  1026.1hPa West 2mph /  3.2km/h 4mph /  6.4km/h 83% 0in /  0.0mm 35 W/m2
14:05 34.9 °F /  1.6 °C 30.2 °F /  -1 °C 30.3in /  1025.7hPa WNW 2.9mph /  4.7km/h 6mph /  9.7km/h 83% 0in /  0.0mm 35 W/m2
14:10 34.9 °F /  1.6 °C 30.6 °F /  -0.8 °C 30.3in /  1025.7hPa West 2mph /  3.2km/h 6mph /  9.7km/h 84% 0in /  0.0mm 35 W/m2
14:15 34.9 °F /  1.6 °C 30.6 °F /  -0.8 °C 30.3in /  1025.7hPa West 0.9mph /  1.4km/h 3mph /  4.8km/h 84% 0in /  0.0mm 35 W/m2
14:20 34.9 °F /  1.6 °C 30.6 °F /  -0.8 °C 30.3in /  1025.7hPa WNW 2mph /  3.2km/h 4mph /  6.4km/h 84% 0in /  0.0mm 35 W/m2
14:25 34.9 °F /  1.6 °C 30.6 °F /  -0.8 °C 30.3in /  1025.7hPa West 2mph /  3.2km/h 4mph /  6.4km/h 84% 0in /  0.0mm 37 W/m2
14:30 34.9 °F /  1.6 °C 30.6 °F /  -0.8 °C 30.3in /  1025.4hPa WNW 2mph /  3.2km/h 2mph /  3.2km/h 84% 0in /  0.0mm 37 W/m2
14:35 34.9 °F /  1.6 °C 30.6 °F /  -0.8 °C 30.3in /  1025.4hPa Calm   2mph /  3.2km/h 84% 0in /  0.0mm 33 W/m2
14:40 34.9 °F /  1.6 °C 30.6 °F /  -0.8 °C 30.3in /  1025.4hPa WNW 2.9mph /  4.7km/h 3mph /  4.8km/h 84% 0in /  0.0mm 46 W/m2
14:45 34.9 °F /  1.6 °C 30.6 °F /  -0.8 °C 30.3in /  1025.1hPa Calm   2mph /  3.2km/h 84% 0in /  0.0mm 69 W/m2
14:50 35.1 °F /  1.7 °C 30.7 °F /  -0.7 °C 30.3in /  1025.1hPa WNW 2mph /  3.2km/h 4mph /  6.4km/h 84% 0in /  0.0mm 67 W/m2
14:55 35.1 °F /  1.7 °C 30.7 °F /  -0.7 °C 30.3in /  1025.4hPa NNW 0.9mph /  1.4km/h 3mph /  4.8km/h 84% 0in /  0.0mm 58 W/m2
15:00 35.2 °F /  1.8 °C 30.6 °F /  -0.8 °C 30.3in /  1025.1hPa WNW 2.9mph /  4.7km/h 7mph /  11.3km/h 83% 0in /  0.0mm 32 W/m2
15:05 35.2 °F /  1.8 °C 30.6 °F /  -0.8 °C 30.3in /  1025.1hPa West 0.9mph /  1.4km/h 2mph /  3.2km/h 83% 0in /  0.0mm 28 W/m2
15:10 35.1 °F /  1.7 °C 30.4 °F /  -0.9 °C 30.3in /  1025.1hPa NW 4mph /  6.4km/h 7mph /  11.3km/h 83% 0in /  0.0mm 28 W/m2
15:15 35.1 °F /  1.7 °C 30.4 °F /  -0.9 °C 30.3in /  1025.1hPa WNW 0.9mph /  1.4km/h 3mph /  4.8km/h 83% 0in /  0.0mm 28 W/m2
15:20 35.1 °F /  1.7 °C 30.4 °F /  -0.9 °C 30.3in /  1025.4hPa NW 0.9mph /  1.4km/h 6mph /  9.7km/h 83% 0in /  0.0mm 28 W/m2
15:25 35.1 °F /  1.7 °C 30.7 °F /  -0.7 °C 30.3in /  1025.4hPa WNW 0.9mph /  1.4km/h 2mph /  3.2km/h 84% 0in /  0.0mm 26 W/m2
15:30 34.9 °F /  1.6 °C 30.6 °F /  -0.8 °C 30.3in /  1025.4hPa Calm   2mph /  3.2km/h 84% 0in /  0.0mm 26 W/m2
15:35 34.7 °F /  1.5 °C 30.4 °F /  -0.9 °C 30.3in /  1025.4hPa West 2.9mph /  4.7km/h 4mph /  6.4km/h 84% 0in /  0.0mm 33 W/m2
15:40 34.9 °F /  1.6 °C 30.9 °F /  -0.6 °C 30.3in /  1025.4hPa Calm   1mph /  1.6km/h 85% 0in /  0.0mm 39 W/m2
15:45 34.9 °F /  1.6 °C 30.6 °F /  -0.8 °C 30.3in /  1025.1hPa WSW 2mph /  3.2km/h 2mph /  3.2km/h 84% 0in /  0.0mm 28 W/m2
15:50 34.9 °F /  1.6 °C 30.6 °F /  -0.8 °C 30.3in /  1025.1hPa West 2.9mph /  4.7km/h 4mph /  6.4km/h 84% 0in /  0.0mm 33 W/m2
15:55 34.9 °F /  1.6 °C 30.9 °F /  -0.6 °C 30.3in /  1025.1hPa WNW 0.9mph /  1.4km/h 3mph /  4.8km/h 85% 0in /  0.0mm 23 W/m2
16:00 34.9 °F /  1.6 °C 30.9 °F /  -0.6 °C 30.3in /  1025.1hPa WSW 0.9mph /  1.4km/h 4mph /  6.4km/h 85% 0in /  0.0mm 19 W/m2
16:05 34.7 °F /  1.5 °C 30.7 °F /  -0.7 °C 30.3in /  1025.1hPa Calm     85% 0in /  0.0mm 16 W/m2
16:10 34.5 °F /  1.4 °C 30.6 °F /  -0.8 °C 30.3in /  1025.1hPa West 0.9mph /  1.4km/h 2mph /  3.2km/h 85% 0in /  0.0mm 14 W/m2
16:15 34.3 °F /  1.3 °C 30.6 °F /  -0.8 °C 30.3in /  1025.1hPa Calm   1mph /  1.6km/h 86% 0in /  0.0mm 12 W/m2
16:20 34.2 °F /  1.2 °C 30.4 °F /  -0.9 °C 30.3in /  1024.7hPa West 0.9mph /  1.4km/h 1mph /  1.6km/h 86% 0in /  0.0mm 11 W/m2
16:25 34 °F /  1.1 °C 30.2 °F /  -1 °C 30.3in /  1025.1hPa Calm     86% 0in /  0.0mm 9 W/m2
16:30 33.6 °F /  0.9 °C 29.8 °F /  -1.2 °C 30.3in /  1024.7hPa NNW 0.9mph /  1.4km/h 2mph /  3.2km/h 86% 0in /  0.0mm 7 W/m2
16:35 33.4 °F /  0.8 °C 30 °F /  -1.1 °C 30.3in /  1025.1hPa ENE 2mph /  3.2km/h 3mph /  4.8km/h 87% 0in /  0.0mm 5 W/m2
16:40 33.4 °F /  0.8 °C 30.2 °F /  -1 °C 30.3in /  1024.7hPa ENE 2mph /  3.2km/h 2mph /  3.2km/h 88% 0in /  0.0mm 0 W/m2
16:45 33.3 °F /  0.7 °C 30 °F /  -1.1 °C 30.3in /  1024.7hPa ENE 0.9mph /  1.4km/h 3mph /  4.8km/h 88% 0in /  0.0mm 0 W/m2
16:50 33.4 °F /  0.8 °C 30.2 °F /  -1 °C 30.3in /  1024.7hPa Calm   1mph /  1.6km/h 88% 0in /  0.0mm 0 W/m2
16:55 33.3 °F /  0.7 °C 30 °F /  -1.1 °C 30.3in /  1025.1hPa Calm   2mph /  3.2km/h 88% 0in /  0.0mm 0 W/m2
17:00 33.3 °F /  0.7 °C 30 °F /  -1.1 °C 30.3in /  1025.1hPa Calm   1mph /  1.6km/h 88% 0in /  0.0mm 0 W/m2
17:05 33.1 °F /  0.6 °C 29.8 °F /  -1.2 °C 30.3in /  1025.1hPa Calm   2mph /  3.2km/h 88% 0in /  0.0mm 0 W/m2
17:10 32.9 °F /  0.5 °C 29.7 °F /  -1.3 °C 30.3in /  1024.7hPa Calm     88% 0in /  0.0mm 0 W/m2
17:15 32.9 °F /  0.5 °C 30 °F /  -1.1 °C 30.3in /  1025.1hPa East 0.9mph /  1.4km/h 1mph /  1.6km/h 89% 0in /  0.0mm 0 W/m2
17:20 32.9 °F /  0.5 °C 30 °F /  -1.1 °C 30.3in /  1025.1hPa East 0.9mph /  1.4km/h 1mph /  1.6km/h 89% 0in /  0.0mm 0 W/m2
17:25 32.9 °F /  0.5 °C 30 °F /  -1.1 °C 30.3in /  1024.7hPa Calm   1mph /  1.6km/h 89% 0in /  0.0mm 0 W/m2
17:30 33.1 °F /  0.6 °C 30.2 °F /  -1 °C 30.3in /  1024.4hPa Calm   2mph /  3.2km/h 89% 0in /  0.0mm 0 W/m2
17:35 32.9 °F /  0.5 °C 30 °F /  -1.1 °C 30.3in /  1024.7hPa East 0.9mph /  1.4km/h 2mph /  3.2km/h 89% 0in /  0.0mm 0 W/m2
17:40 32.9 °F /  0.5 °C 30 °F /  -1.1 °C 30.3in /  1024.7hPa Calm   1mph /  1.6km/h 89% 0in /  0.0mm 0 W/m2
Juneau County Weather
Compliments of Weather Underground - 2 mb